Time;durP1;ratioP1;P1;durP2;ratioP2;P2;SDS_P1;SDS_P2;PMS_P1;PMS_P2;Temp;Humidity;BMP_temperature;BMP_pressure;BME280_temperature;BME280_humidity;BME280_pressure;Samples;Min_cycle;Max_cycle;Signal;HPM_P1;HPM_P2
2020/12/24 00:04:35;;;;;;;24.92;11.45;;;;;;;8.29;99.29;99410.05;3482698;83;32991;-80
2020/12/24 00:09:36;;;;;;;19.73;10.00;;;;;;;8.35;99.15;99409.11;3479296;82;98276;-81
2020/12/24 00:14:37;;;;;;;17.33;8.37;;;;;;;8.41;99.13;99387.77;3486617;83;26491;-81
2020/12/24 00:19:38;;;;;;;15.10;8.27;;;;;;;8.48;98.91;99382.90;3480740;82;98310;-79
2020/12/24 00:24:39;;;;;;;14.28;7.25;;;;;;;8.49;98.94;99368.80;3488443;83;26017;-81
2020/12/24 00:29:40;;;;;;;17.80;8.73;;;;;;;8.46;98.86;99361.95;3475751;82;98293;-80
2020/12/24 00:34:41;;;;;;;19.00;9.03;;;;;;;8.46;99.10;99350.98;3487867;83;26390;-82
2020/12/24 00:39:42;;;;;;;18.37;10.23;;;;;;;8.53;99.20;99359.21;3481688;82;97980;-81
2020/12/24 00:44:43;;;;;;;20.90;10.57;;;;;;;8.61;99.00;99337.50;3490531;83;26448;-81
2020/12/24 00:49:44;;;;;;;21.70;10.83;;;;;;;8.68;98.90;99335.52;3485540;82;98501;-81
2020/12/24 00:54:45;;;;;;;20.57;10.87;;;;;;;8.69;98.74;99320.66;3485337;83;25958;-81
2020/12/24 00:59:45;;;;;;;22.33;13.00;;;;;;;8.67;99.07;99322.98;3485917;82;98401;-79
2020/12/24 01:04:46;;;;;;;23.98;13.32;;;;;;;8.74;99.40;99316.16;3474725;83;33384;-80
2020/12/24 01:09:47;;;;;;;23.80;13.93;;;;;;;8.74;99.50;99332.62;3479775;83;98660;-79
2020/12/24 01:14:48;;;;;;;26.00;13.90;;;;;;;8.72;99.89;99328.09;3489577;83;33331;-79
2020/12/24 01:19:49;;;;;;;23.33;14.17;;;;;;;8.75;100.00;99338.87;3479381;82;98389;-80
2020/12/24 01:24:50;;;;;;;25.07;16.23;;;;;;;8.84;100.00;99340.05;3486504;83;33749;-79
2020/12/24 01:29:50;;;;;;;24.97;13.77;;;;;;;8.94;100.00;99324.78;3479361;82;98613;-79
2020/12/24 01:34:51;;;;;;;24.10;14.13;;;;;;;9.05;100.00;99315.35;3491840;83;32955;-79
2020/12/24 01:39:52;;;;;;;24.53;13.47;;;;;;;9.16;100.00;99317.50;3477919;83;98620;-79
2020/12/24 01:44:53;;;;;;;21.73;12.73;;;;;;;9.25;100.00;99306.91;3485451;83;31757;-79
2020/12/24 01:49:54;;;;;;;20.27;10.97;;;;;;;9.35;100.00;99310.80;3479313;82;98481;-79
2020/12/24 01:54:56;;;;;;;20.53;12.17;;;;;;;9.46;100.00;99307.45;3484609;83;31794;-78
2020/12/24 01:59:57;;;;;;;20.33;11.80;;;;;;;9.59;100.00;99309.37;3468896;83;98575;-79
2020/12/24 02:04:58;;;;;;;19.37;11.23;;;;;;;9.71;100.00;99302.06;3493126;83;31743;-79
2020/12/24 02:09:59;;;;;;;18.93;11.33;;;;;;;9.82;100.00;99300.67;3495151;83;98364;-79
2020/12/24 02:15:00;;;;;;;20.00;11.03;;;;;;;9.92;100.00;99298.47;3528206;82;31778;-78
2020/12/24 02:20:01;;;;;;;19.73;11.80;;;;;;;10.03;100.00;99296.45;3531292;82;98428;-79
2020/12/24 02:25:02;;;;;;;17.97;10.87;;;;;;;10.12;100.00;99295.44;3534082;82;32306;-79
2020/12/24 02:30:04;;;;;;;16.73;10.13;;;;;;;10.21;100.00;99282.84;3520036;81;98985;-79
2020/12/24 02:35:05;;;;;;;16.03;9.70;;;;;;;10.29;100.00;99291.80;3533968;82;31750;-79
2020/12/24 02:40:06;;;;;;;15.63;9.53;;;;;;;10.34;100.00;99284.50;3521970;82;98642;-79
2020/12/24 02:45:08;;;;;;;17.27;9.77;;;;;;;10.37;100.00;99275.46;3526996;82;30417;-79
2020/12/24 02:50:10;;;;;;;15.83;8.33;;;;;;;10.45;100.00;99273.63;3529018;81;98712;-79
2020/12/24 02:55:10;;;;;;;14.57;8.47;;;;;;;10.48;100.00;99262.42;3540816;82;31795;-78
2020/12/24 03:00:12;;;;;;;14.50;7.73;;;;;;;10.50;100.00;99251.78;3522985;82;98993;-77
2020/12/24 03:05:13;;;;;;;15.33;8.97;;;;;;;10.53;100.00;99252.36;3527356;82;31687;-78
2020/12/24 03:10:14;;;;;;;16.97;8.57;;;;;;;10.52;100.00;99251.56;3520370;82;98701;-77
2020/12/24 03:15:15;;;;;;;15.23;8.50;;;;;;;10.52;100.00;99256.30;3488329;83;32155;-78
2020/12/24 03:20:17;;;;;;;14.30;8.90;;;;;;;10.52;100.00;99254.32;3477066;82;98689;-79
2020/12/24 03:25:18;;;;;;;12.93;7.40;;;;;;;10.52;100.00;99250.80;3488515;83;34923;-79
2020/12/24 03:30:19;;;;;;;11.35;6.75;;;;;;;10.51;100.00;99242.34;3479057;82;98775;-78
2020/12/24 03:35:20;;;;;;;10.77;6.00;;;;;;;10.53;100.00;99249.00;3493857;83;36177;-79
2020/12/24 03:40:21;;;;;;;9.73;5.83;;;;;;;10.55;100.00;99243.10;3483822;82;98662;-78
2020/12/24 03:45:22;;;;;;;9.73;5.13;;;;;;;10.57;100.00;99244.27;3488106;83;35255;-78
2020/12/24 03:50:23;;;;;;;10.20;5.77;;;;;;;10.60;100.00;99242.09;3482778;82;98206;-79
2020/12/24 03:55:24;;;;;;;9.60;4.97;;;;;;;10.58;100.00;99241.70;3499478;83;35042;-78
2020/12/24 04:00:25;;;;;;;9.37;5.00;;;;;;;10.62;100.00;99232.03;3479840;82;98143;-79
2020/12/24 04:05:26;;;;;;;11.03;5.90;;;;;;;10.61;100.00;99241.48;3490227;83;35072;-79
2020/12/24 04:10:27;;;;;;;9.13;5.23;;;;;;;10.61;100.00;99241.48;3474803;82;98912;-79
2020/12/24 04:15:28;;;;;;;11.35;6.12;;;;;;;10.58;100.00;99251.94;3531558;82;36066;-78
2020/12/24 04:20:29;;;;;;;9.37;5.10;;;;;;;10.59;100.00;99257.62;3519029;82;98469;-78
2020/12/24 04:25:30;;;;;;;9.00;4.80;;;;;;;10.50;100.00;99244.33;3529258;82;32750;-78
2020/12/24 04:30:30;;;;;;;8.60;4.73;;;;;;;10.54;100.00;99263.55;3526108;81;98295;-79
2020/12/24 04:35:31;;;;;;;7.80;4.17;;;;;;;10.52;100.00;99257.07;3532487;82;33160;-79
2020/12/24 04:40:34;;;;;;;7.00;3.40;;;;;;;10.51;100.00;99258.27;3519903;81;98345;-78
2020/12/24 04:45:36;;;;;;;7.10;4.03;;;;;;;10.52;100.00;99257.69;3525853;82;26448;-78
2020/12/24 04:50:39;;;;;;;6.63;3.50;;;;;;;10.58;100.00;99246.43;3522282;81;98117;-78
2020/12/24 04:55:40;;;;;;;8.27;4.17;;;;;;;10.62;100.00;99241.66;3530936;82;29905;-79
2020/12/24 05:00:41;;;;;;;7.27;3.83;;;;;;;10.68;100.00;99235.33;3519882;81;98289;-79
2020/12/24 05:05:44;;;;;;;7.80;3.60;;;;;;;10.77;100.00;99251.38;3526593;82;32741;-80
2020/12/24 05:10:59;;;;;;;7.50;4.07;;;;;;;10.78;100.00;99253.72;3519526;82;98351;-79
2020/12/24 05:16:15;;;;;;;5.90;3.10;;;;;;;10.83;100.00;99271.17;3508325;82;98833;-79
2020/12/24 05:21:29;;;;;;;6.77;3.90;;;;;;;10.87;100.00;99252.67;3523221;82;26018;-78
2020/12/24 05:26:31;;;;;;;7.35;4.05;;;;;;;10.90;100.00;99243.58;3515547;81;98335;-78
2020/12/24 05:31:34;;;;;;;7.93;4.10;;;;;;;10.92;99.85;99254.19;3532359;82;26747;-79
2020/12/24 05:36:34;;;;;;;6.80;3.33;;;;;;;10.89;99.51;99252.23;3511693;82;98509;-79
2020/12/24 05:41:38;;;;;;;6.63;3.50;;;;;;;10.80;99.39;99256.84;3528731;82;32632;-79
2020/12/24 05:46:46;;;;;;;7.20;4.10;;;;;;;10.75;99.46;99262.77;3519854;81;98146;-79
2020/12/24 05:51:57;;;;;;;8.10;4.00;;;;;;;10.67;99.44;99245.36;3519076;82;26597;-79
2020/12/24 05:57:20;;;;;;;9.88;4.03;;;;;;;10.59;99.55;99241.91;3527264;82;98407;-79
2020/12/24 06:02:24;;;;;;;7.73;4.70;;;;;;;10.50;99.55;99242.95;3411155;85;27018;-78
2020/12/24 06:07:31;;;;;;;9.30;5.58;;;;;;;10.45;99.70;99228.83;3404573;85;98239;-79
2020/12/24 06:12:32;;;;;;;8.10;4.90;;;;;;;10.39;99.74;99214.75;3412255;85;31842;-77
2020/12/24 06:17:33;;;;;;;7.77;4.27;;;;;;;10.35;100.00;99207.11;3409874;85;98502;-79
2020/12/24 06:22:34;;;;;;;7.53;3.77;;;;;;;10.31;99.88;99191.22;3412059;85;32858;-79
2020/12/24 06:27:43;;;;;;;7.50;4.37;;;;;;;10.29;99.95;99209.31;3401226;85;98374;-79
2020/12/24 06:32:50;;;;;;;7.80;3.57;;;;;;;10.25;99.88;99214.08;3416027;85;28954;-80
2020/12/24 06:37:51;;;;;;;5.58;3.35;;;;;;;10.20;100.00;99211.14;3405262;85;98247;-78
2020/12/24 06:42:52;;;;;;;8.83;3.30;;;;;;;10.18;100.00;99223.72;3413714;85;33267;-78
2020/12/24 06:48:16;;;;;;;7.10;3.60;;;;;;;10.13;100.00;99219.44;3408131;85;98742;-79
2020/12/24 06:53:35;;;;;;;8.50;3.67;;;;;;;10.09;100.00;99197.30;3386328;85;33180;-79
2020/12/24 06:59:05;;;;;;;9.75;4.22;;;;;;;10.10;100.00;99204.35;3407056;84;98351;-77
2020/12/24 07:04:08;;;;;;;6.97;3.10;;;;;;;10.06;100.00;99218.13;3409458;85;33823;-78
2020/12/24 07:09:11;;;;;;;7.75;3.50;;;;;;;10.01;100.00;99213.59;3397377;85;98416;-77
2020/12/24 07:14:36;;;;;;;9.53;3.53;;;;;;;9.96;100.00;99230.51;3387782;85;33243;-81
2020/12/24 07:19:41;;;;;;;8.17;4.40;;;;;;;9.91;100.00;99228.97;3402621;84;98432;-81
2020/12/24 07:24:58;;;;;;;7.80;3.60;;;;;;;9.89;100.00;99218.19;3410500;85;33679;-81
2020/12/24 07:30:03;;;;;;;7.00;3.10;;;;;;;9.84;100.00;99233.14;3405422;85;98146;-80
2020/12/24 07:35:04;;;;;;;11.33;3.43;;;;;;;9.82;100.00;99225.87;3407592;85;30142;-79
2020/12/24 07:40:05;;;;;;;10.40;3.67;;;;;;;9.81;100.00;99223.55;3403508;85;98246;-81
2020/12/24 07:45:06;;;;;;;5.00;2.50;;;;;;;9.82;100.00;99238.84;3412470;84;32749;-81
2020/12/24 07:50:07;;;;;;;5.93;2.80;;;;;;;9.81;100.00;99231.18;3404045;85;98399;-80
2020/12/24 07:55:10;;;;;;;7.73;2.77;;;;;;;9.81;100.00;99223.55;3412526;85;33332;-79
2020/12/24 08:00:11;;;;;;;6.40;2.67;;;;;;;9.83;100.00;99211.55;3399447;85;98023;-80
2020/12/24 08:05:11;;;;;;;4.23;2.20;;;;;;;9.85;100.00;99209.97;3395092;85;32749;-81
2020/12/24 08:10:12;;;;;;;7.05;2.58;;;;;;;9.95;100.00;99198.72;3388243;85;98293;-80
2020/12/24 08:15:17;;;;;;;6.43;2.60;;;;;;;10.05;99.86;99211.64;3392488;85;32802;-79
2020/12/24 08:20:20;;;;;;;4.33;1.70;;;;;;;10.14;99.61;99210.62;3386513;85;98052;-79
2020/12/24 08:25:21;;;;;;;5.63;2.03;;;;;;;10.22;99.17;99206.62;3371494;85;32725;-79
2020/12/24 08:30:23;;;;;;;6.70;1.80;;;;;;;10.26;98.72;99205.39;3386102;85;98448;-80
2020/12/24 08:35:28;;;;;;;4.23;1.37;;;;;;;10.32;97.94;99207.14;3391633;85;26726;-79
2020/12/24 08:40:29;;;;;;;2.30;1.30;;;;;;;10.34;96.83;99230.30;3363742;85;98738;-80
2020/12/24 08:45:30;;;;;;;5.33;1.20;;;;;;;10.39;96.97;99218.88;3387498;85;32796;-79
2020/12/24 08:50:34;;;;;;;6.33;1.43;;;;;;;10.44;96.51;99213.52;3392669;85;98122;-80
2020/12/24 08:55:35;;;;;;;6.97;1.60;;;;;;;10.46;95.72;99202.91;3394598;85;33395;-80
2020/12/24 09:00:36;;;;;;;4.77;1.60;;;;;;;10.43;95.66;99215.52;3384463;85;98474;-79
2020/12/24 09:05:37;;;;;;;11.33;3.07;;;;;;;10.33;94.91;99211.45;3392768;85;33210;-79
2020/12/24 09:10:38;;;;;;;10.47;2.50;;;;;;;10.28;94.78;99216.00;3388402;85;98543;-80
2020/12/24 09:15:39;;;;;;;3.00;1.17;;;;;;;10.20;93.70;99218.63;3394115;84;32929;-80
2020/12/24 09:20:41;;;;;;;3.67;1.40;;;;;;;10.13;93.40;99225.52;3365850;85;98248;-80
2020/12/24 09:31:06;;;;;;;3.47;1.07;;;;;;;10.14;91.98;99223.75;3649590;78;35221;-92
2020/12/24 09:36:07;;;;;;;4.60;1.03;;;;;;;10.10;91.24;99225.77;3585256;81;99169;-93
2020/12/24 09:41:11;;;;;;;4.70;1.10;;;;;;;10.05;91.05;99228.14;3541344;81;35475;-91
2020/12/24 09:46:16;;;;;;;3.73;0.97;;;;;;;9.91;89.79;99229.55;3538045;79;98163;-91
2020/12/24 09:51:17;;;;;;;4.73;1.50;;;;;;;9.71;89.10;99205.14;3496968;82;25887;-92
2020/12/24 09:56:19;;;;;;;6.17;1.63;;;;;;;9.69;88.71;99222.02;3487344;82;98387;-95
2020/12/24 10:01:19;;;;;;;6.17;1.43;;;;;;;9.62;87.17;99225.39;3436311;83;26465;-92
2020/12/24 10:06:21;;;;;;;4.47;1.10;;;;;;;9.57;87.36;99223.05;3469226;83;98398;-94
2020/12/24 10:11:22;;;;;;;3.90;1.10;;;;;;;9.46;86.48;99220.94;3491555;83;36152;-92
2020/12/24 10:16:27;;;;;;;5.23;1.93;;;;;;;9.36;87.16;99218.44;3482783;83;98032;-93
2020/12/24 10:21:30;;;;;;;6.07;1.30;;;;;;;9.30;87.62;99210.42;3445004;83;26064;-94
2020/12/24 10:26:31;;;;;;;8.60;1.47;;;;;;;9.32;86.94;99210.03;3443458;83;98985;-93
2020/12/24 10:31:31;;;;;;;9.20;1.50;;;;;;;9.35;84.83;99211.96;3475213;83;35018;-93
2020/12/24 10:36:32;;;;;;;5.90;1.20;;;;;;;9.37;86.26;99207.64;3470267;82;98399;-95
2020/12/24 10:41:34;;;;;;;4.80;1.63;;;;;;;9.36;85.63;99206.66;3420961;84;35750;-94
2020/12/24 10:46:35;;;;;;;3.93;1.10;;;;;;;9.32;85.12;99200.42;3429858;83;98495;-92
2020/12/24 10:51:37;;;;;;;5.93;1.43;;;;;;;9.31;84.77;99196.88;3419865;84;35035;-91
2020/12/24 10:56:48;;;;;;;7.13;1.47;;;;;;;9.36;84.01;99188.81;3412989;83;98164;-93
2020/12/24 11:01:50;;;;;;;6.87;1.70;;;;;;;9.42;82.68;99189.38;3455581;83;35022;-94
2020/12/24 11:06:51;;;;;;;9.30;2.13;;;;;;;9.45;83.81;99180.94;3444099;83;98356;-94
2020/12/24 11:11:52;;;;;;;9.97;3.40;;;;;;;9.42;83.05;99172.11;3466034;83;35010;-94
2020/12/24 11:16:52;;;;;;;7.40;2.20;;;;;;;9.38;83.72;99157.64;3455474;83;97998;-95
2020/12/24 11:21:53;;;;;;;6.37;1.70;;;;;;;9.41;83.89;99149.95;3462633;83;35437;-94
2020/12/24 11:26:58;;;;;;;6.73;2.57;;;;;;;9.46;83.43;99142.10;3378706;84;98375;-92
2020/12/24 11:31:59;;;;;;;3.30;0.90;;;;;;;9.50;82.82;99128.34;3385322;85;35021;-91
2020/12/24 11:37:00;;;;;;;7.28;1.60;;;;;;;9.49;81.58;99131.67;3359380;86;99028;-92
2020/12/24 11:42:01;;;;;;;8.37;2.17;;;;;;;9.42;81.37;99122.11;3363582;85;35552;-94
2020/12/24 11:47:02;;;;;;;5.90;1.10;;;;;;;9.37;82.36;99122.52;3345085;86;98350;-91
2020/12/24 11:52:04;;;;;;;8.27;1.77;;;;;;;9.35;82.11;99116.66;3361578;86;35635;-92
2020/12/24 11:57:05;;;;;;;7.23;1.40;;;;;;;9.34;81.59;99115.69;3357487;86;98263;-92
2020/12/24 12:02:08;;;;;;;6.37;1.87;;;;;;;9.39;81.33;99114.66;3366611;85;35171;-92
2020/12/24 12:07:09;;;;;;;7.83;1.63;;;;;;;9.40;80.16;99099.77;3353813;86;98466;-93
2020/12/24 12:12:10;;;;;;;5.63;1.30;;;;;;;9.38;80.33;99099.38;3361074;86;35125;-92
2020/12/24 12:17:12;;;;;;;3.87;1.10;;;;;;;9.34;79.85;99095.09;3351408;86;98503;-93
2020/12/24 12:22:14;;;;;;;8.13;1.40;;;;;;;9.27;79.39;99098.64;3352952;86;35148;-92
2020/12/24 12:27:14;;;;;;;9.10;1.73;;;;;;;9.22;80.10;99096.92;3359580;86;99184;-94
2020/12/24 12:32:15;;;;;;;7.07;1.40;;;;;;;9.25;80.15;99092.78;3452268;84;35106;-91
2020/12/24 12:37:17;;;;;;;5.77;1.40;;;;;;;9.28;79.64;99087.85;3446926;83;98525;-91
2020/12/24 12:42:19;;;;;;;10.33;1.70;;;;;;;9.33;79.26;99090.79;3462430;83;35101;-91
2020/12/24 12:47:24;;;;;;;6.77;1.50;;;;;;;9.32;78.77;99076.88;3457378;83;98546;-95
2020/12/24 12:52:26;;;;;;;6.70;1.23;;;;;;;9.29;78.90;99086.70;3451033;83;35445;-92
2020/12/24 12:57:30;;;;;;;6.70;1.40;;;;;;;9.22;78.16;99067.50;3453517;82;98618;-91
2020/12/24 13:02:31;;;;;;;6.90;1.23;;;;;;;9.18;78.44;99068.12;3461586;83;26049;-91
2020/12/24 13:07:33;;;;;;;7.13;1.50;;;;;;;9.13;78.17;99072.66;3452610;83;98080;-90
2020/12/24 13:12:35;;;;;;;7.33;1.20;;;;;;;9.11;77.96;99067.38;3420727;83;35118;-93
2020/12/24 13:17:36;;;;;;;6.53;1.45;;;;;;;9.13;77.30;99066.38;3457384;83;98411;-93
2020/12/24 13:22:38;;;;;;;6.90;1.67;;;;;;;9.17;77.77;99069.28;3459559;83;36196;-93
2020/12/24 13:27:39;;;;;;;5.63;1.60;;;;;;;9.17;77.28;99073.40;3450968;83;98942;-93
2020/12/24 13:32:40;;;;;;;7.27;2.37;;;;;;;9.17;77.67;99069.89;3433922;83;35408;-92
2020/12/24 13:37:41;;;;;;;11.83;3.17;;;;;;;9.16;77.99;99075.20;3434095;83;98275;-93
2020/12/24 13:42:42;;;;;;;9.30;3.20;;;;;;;9.14;77.95;99085.20;3437628;84;35029;-95
2020/12/24 13:47:44;;;;;;;9.53;2.33;;;;;;;9.12;78.01;99084.83;3422861;83;97839;-92
2020/12/24 13:52:44;;;;;;;7.23;2.03;;;;;;;9.10;78.13;99093.27;3362850;86;35707;-92
2020/12/24 13:57:45;;;;;;;7.10;1.93;;;;;;;9.12;78.22;99095.01;3346050;86;98548;-94
2020/12/24 14:02:46;;;;;;;10.27;2.87;;;;;;;9.18;78.51;99074.98;3470557;83;35188;-94
2020/12/24 14:07:48;;;;;;;6.57;1.50;;;;;;;9.25;77.18;99083.76;3429020;84;98395;-94
2020/12/24 14:12:54;;;;;;;5.27;1.70;;;;;;;9.25;77.18;99083.76;3396585;84;35087;-95
2020/12/24 14:17:55;;;;;;;6.90;1.45;;;;;;;9.23;77.06;99075.15;3403648;84;98090;-94
2020/12/24 14:22:58;;;;;;;9.33;3.40;;;;;;;9.17;77.48;99068.52;3449334;84;35089;-96
2020/12/24 14:28:01;;;;;;;12.82;4.08;;;;;;;9.10;77.72;99073.45;3446670;84;98401;-95
2020/12/24 14:33:11;;;;;;;12.40;4.83;;;;;;;9.03;77.38;99070.74;3428121;84;36186;-92
2020/12/24 14:38:11;;;;;;;10.17;3.20;;;;;;;8.95;78.12;99071.94;3423560;84;98247;-92
2020/12/24 14:43:12;;;;;;;12.00;3.57;;;;;;;8.86;77.92;99067.48;3445562;84;35082;-93
2020/12/24 14:48:16;;;;;;;10.90;3.43;;;;;;;8.84;78.14;99064.34;3400823;84;98614;-96
2020/12/24 14:53:17;;;;;;;9.53;2.73;;;;;;;8.87;78.32;99065.51;3404203;85;26489;-93
2020/12/24 14:58:19;;;;;;;11.27;3.60;;;;;;;8.92;78.22;99065.09;3395623;85;98060;-95
2020/12/24 15:03:20;;;;;;;9.97;3.13;;;;;;;8.90;78.27;99056.50;3407674;85;35151;-93
2020/12/24 15:08:22;;;;;;;9.83;3.07;;;;;;;8.83;78.36;99066.90;3392746;84;98880;-93
2020/12/24 15:13:24;;;;;;;9.23;3.67;;;;;;;8.74;78.36;99060.28;3397368;85;35666;-94
2020/12/24 15:18:25;;;;;;;9.70;3.60;;;;;;;8.65;78.47;99059.91;3417274;84;98159;-94
2020/12/24 15:23:26;;;;;;;11.37;3.80;;;;;;;8.57;78.81;99058.38;3431603;83;35090;-94
2020/12/24 15:28:27;;;;;;;11.33;4.50;;;;;;;8.51;78.88;99059.97;3471060;83;98222;-96
2020/12/24 15:33:28;;;;;;;11.83;4.43;;;;;;;8.50;79.27;99062.52;3449661;84;35142;-95
2020/12/24 15:38:29;;;;;;;11.17;3.70;;;;;;;8.52;80.35;99079.34;3445768;85;98583;-94
2020/12/24 15:43:30;;;;;;;10.83;3.90;;;;;;;8.48;82.16;99089.53;3447434;84;35050;-96
2020/12/24 15:48:34;;;;;;;8.97;3.43;;;;;;;8.36;83.42;99089.95;3439636;84;99029;-96
2020/12/24 15:53:39;;;;;;;9.00;3.30;;;;;;;8.28;84.72;99098.77;3442787;85;26425;-96
2020/12/24 15:58:40;;;;;;;6.70;2.13;;;;;;;8.21;85.54;99091.94;3434567;84;98234;-96
2020/12/24 16:03:41;;;;;;;5.77;2.00;;;;;;;8.06;85.58;99098.56;3449295;84;35038;-96
2020/12/24 16:08:42;;;;;;;7.23;2.60;;;;;;;7.97;86.00;99100.13;3446016;84;98098;-95
2020/12/24 16:13:45;;;;;;;8.37;3.17;;;;;;;7.88;86.29;99108.74;3446280;85;34990;-95
2020/12/24 16:18:45;;;;;;;6.37;2.50;;;;;;;7.76;86.90;99119.28;3414732;83;99098;-96
2020/12/24 16:23:46;;;;;;;14.17;5.50;;;;;;;7.58;87.34;99129.44;3441699;84;34962;-94
2020/12/24 16:28:49;;;;;;;8.27;3.90;;;;;;;7.43;87.47;99131.36;3441372;84;98496;-94
2020/12/24 16:33:50;;;;;;;9.10;4.00;;;;;;;7.43;87.58;99152.46;3510740;82;26123;-94
2020/12/24 16:38:52;;;;;;;12.27;6.47;;;;;;;7.27;87.52;99161.59;3503526;82;98706;-94
2020/12/24 16:43:54;;;;;;;10.60;4.47;;;;;;;7.22;87.83;99167.43;3510060;82;35026;-95
2020/12/24 16:48:55;;;;;;;7.03;3.27;;;;;;;7.16;87.29;99177.18;3472353;83;98869;-96
2020/12/24 16:53:56;;;;;;;10.53;4.70;;;;;;;7.07;87.34;99171.27;3496725;82;35023;-95
2020/12/24 16:58:57;;;;;;;10.33;4.20;;;;;;;6.98;87.25;99184.52;3499434;82;98560;-95
2020/12/24 17:03:58;;;;;;;8.63;3.83;;;;;;;6.83;87.33;99190.47;3498688;82;35100;-93
2020/12/24 17:09:03;;;;;;;7.83;3.80;;;;;;;6.68;87.55;99197.04;3497776;82;97991;-92
2020/12/24 17:14:04;;;;;;;11.43;5.50;;;;;;;6.56;87.71;99207.48;3506303;82;35564;-93
2020/12/24 17:19:06;;;;;;;14.20;6.33;;;;;;;6.44;87.83;99219.48;3493306;83;98731;-91
2020/12/24 17:24:07;;;;;;;9.53;4.40;;;;;;;6.29;87.81;99223.28;3512723;82;35047;-94
2020/12/24 17:29:08;;;;;;;8.93;3.43;;;;;;;6.16;88.20;99240.34;3501335;83;100521;-94
2020/12/24 17:34:09;;;;;;;6.50;3.20;;;;;;;6.17;88.49;99246.00;3475271;83;35804;-94
2020/12/24 17:39:10;;;;;;;5.83;2.30;;;;;;;6.21;88.38;99260.48;3469931;83;98275;-95
2020/12/24 17:44:12;;;;;;;5.70;2.40;;;;;;;6.19;88.40;99269.05;3476992;84;35138;-92
2020/12/24 17:49:13;;;;;;;7.17;2.60;;;;;;;6.19;88.48;99280.55;3463011;83;98264;-94
2020/12/24 17:54:13;;;;;;;5.00;2.17;;;;;;;6.25;88.36;99294.86;3456524;83;34997;-94
2020/12/24 17:59:14;;;;;;;6.50;2.20;;;;;;;6.17;88.40;99301.40;3474644;84;98465;-93
2020/12/24 18:04:15;;;;;;;3.80;1.70;;;;;;;5.98;88.19;99316.62;3472934;83;34988;-93
2020/12/24 18:09:16;;;;;;;5.60;2.50;;;;;;;5.78;88.37;99323.95;3464087;83;98109;-93
2020/12/24 18:14:17;;;;;;;6.90;2.80;;;;;;;5.69;88.82;99339.81;3474613;83;35593;-93
2020/12/24 18:19:18;;;;;;;7.83;3.33;;;;;;;5.57;88.76;99346.28;3471328;83;98123;-96
2020/12/24 18:24:19;;;;;;;4.33;1.87;;;;;;;5.57;89.19;99349.61;3478956;83;35010;-94
2020/12/24 18:29:20;;;;;;;6.43;2.37;;;;;;;5.58;89.45;99364.25;3474803;83;98200;-91
2020/12/24 18:34:21;;;;;;;8.47;3.50;;;;;;;5.59;89.20;99371.28;3483947;83;32883;-93
2020/12/24 18:39:22;;;;;;;6.27;2.40;;;;;;;5.63;89.37;99378.91;3478637;83;98153;-92
2020/12/24 18:44:23;;;;;;;9.73;4.70;;;;;;;5.72;89.29;99392.31;3489214;83;32754;-94
2020/12/24 18:49:25;;;;;;;7.87;2.87;;;;;;;5.78;89.19;99400.39;3478761;83;97797;-93
2020/12/24 18:54:26;;;;;;;5.60;2.13;;;;;;;5.82;88.90;99414.32;3474595;83;34167;-92
2020/12/24 18:59:27;;;;;;;7.80;2.50;;;;;;;5.78;88.98;99429.05;3481085;83;97657;-93
2020/12/24 19:04:28;;;;;;;6.37;2.33;;;;;;;5.70;88.99;99448.63;3480018;83;32853;-93
2020/12/24 19:09:29;;;;;;;6.70;2.33;;;;;;;5.60;88.94;99454.72;3481645;83;98027;-94
2020/12/24 19:14:30;;;;;;;7.60;2.27;;;;;;;5.45;89.04;99456.25;3470329;83;32796;-92
2020/12/24 19:19:30;;;;;;;5.57;2.00;;;;;;;5.36;89.12;99470.70;3477683;83;98146;-94
2020/12/24 19:24:31;;;;;;;4.60;2.15;;;;;;;5.31;88.91;99486.02;3479156;83;32661;-92
2020/12/24 19:29:32;;;;;;;5.03;1.83;;;;;;;5.21;89.07;99498.33;3481949;84;98204;-92
2020/12/24 19:34:33;;;;;;;6.03;2.13;;;;;;;5.21;89.18;99502.42;3492969;83;26485;-92
2020/12/24 19:39:34;;;;;;;6.07;2.07;;;;;;;5.11;89.15;99507.11;3464495;83;98168;-93
2020/12/24 19:44:35;;;;;;;5.30;1.67;;;;;;;5.14;89.30;99523.31;3468588;83;26096;-92
2020/12/24 19:49:36;;;;;;;6.77;2.67;;;;;;;5.08;89.16;99547.36;3463925;84;98244;-93
2020/12/24 19:54:41;;;;;;;4.53;1.83;;;;;;;5.13;89.51;99564.79;3484401;83;26624;-94
2020/12/24 19:59:42;;;;;;;3.47;1.30;;;;;;;5.19;89.44;99571.52;3481806;83;98266;-93
2020/12/24 20:04:43;;;;;;;4.10;1.60;;;;;;;5.14;89.20;99582.73;3489435;84;27517;-92
2020/12/24 20:09:44;;;;;;;9.37;4.07;;;;;;;5.15;89.18;99600.69;3480098;83;99184;-92
2020/12/24 20:14:45;;;;;;;6.33;2.63;;;;;;;5.20;89.29;99607.78;3484397;83;26135;-93
2020/12/24 20:19:46;;;;;;;5.53;2.10;;;;;;;5.17;89.19;99600.30;3481064;83;97907;-94
2020/12/24 20:24:47;;;;;;;4.83;1.77;;;;;;;5.18;89.16;99605.41;3494552;83;26139;-92
2020/12/24 20:29:48;;;;;;;5.37;1.67;;;;;;;5.14;89.20;99617.41;3447179;83;98103;-91
2020/12/24 20:34:53;;;;;;;5.20;2.67;;;;;;;5.05;89.22;99615.47;3478217;83;25944;-92
2020/12/24 20:39:52;;;;;;;5.70;1.97;;;;;;;4.98;89.39;99620.23;3469107;83;97731;-92
2020/12/24 20:44:53;;;;;;;4.40;2.87;;;;;;;4.90;89.47;99634.84;3471008;84;26040;-90
2020/12/24 20:49:54;;;;;;;5.30;1.77;;;;;;;4.86;89.62;99644.88;3472282;83;98004;-90
2020/12/24 20:54:55;;;;;;;8.00;2.97;;;;;;;4.85;89.82;99647.98;3474570;85;26412;-93
2020/12/24 20:59:55;;;;;;;7.03;1.85;;;;;;;4.90;90.03;99656.66;3464355;83;98063;-93
2020/12/24 21:04:56;;;;;;;5.40;1.90;;;;;;;4.99;90.25;99662.70;3473180;84;26043;-93
2020/12/24 21:09:59;;;;;;;6.70;2.20;;;;;;;4.99;90.25;99662.70;3476081;83;98158;-92
2020/12/24 21:15:00;;;;;;;9.67;2.57;;;;;;;5.05;90.06;99673.53;3481412;83;33052;-92
2020/12/24 21:20:03;;;;;;;5.27;2.60;;;;;;;5.12;90.00;99672.30;3478706;84;98079;-93
2020/12/24 21:25:05;;;;;;;4.67;1.83;;;;;;;5.22;90.21;99677.19;3409992;84;33926;-94
2020/12/24 21:30:07;;;;;;;3.60;1.47;;;;;;;5.23;89.89;99695.72;3422882;85;97699;-93
2020/12/24 21:35:08;;;;;;;5.77;2.17;;;;;;;5.08;90.16;99704.16;3504977;82;33582;-92
2020/12/24 21:40:09;;;;;;;4.87;2.87;;;;;;;4.97;90.47;99704.51;3521703;82;98122;-92
2020/12/24 21:45:10;;;;;;;5.60;2.23;;;;;;;4.92;90.47;99720.38;3536005;82;33059;-94
2020/12/24 21:50:11;;;;;;;4.87;2.43;;;;;;;4.87;91.08;99722.81;3531841;83;98021;-93
2020/12/24 21:55:12;;;;;;;6.47;2.67;;;;;;;4.85;91.07;99714.19;3530265;82;32048;-92
2020/12/24 22:00:13;;;;;;;4.00;1.80;;;;;;;4.85;91.16;99725.09;3560952;81;97743;-94
2020/12/24 22:05:14;;;;;;;7.13;2.30;;;;;;;4.95;91.37;99726.45;3558115;81;32154;-94
2020/12/24 22:10:15;;;;;;;7.20;2.80;;;;;;;5.09;91.44;99732.23;3564211;81;98260;-93
2020/12/24 22:15:15;;;;;;;5.20;2.03;;;;;;;5.14;91.11;99725.14;3567904;81;30041;-94
2020/12/24 22:20:19;;;;;;;5.17;1.80;;;;;;;5.18;91.21;99724.05;3550500;82;97712;-94
2020/12/24 22:25:19;;;;;;;5.93;1.83;;;;;;;5.21;91.16;99730.17;3566174;81;31867;-93
2020/12/24 22:30:20;;;;;;;5.97;2.23;;;;;;;5.32;91.11;99722.20;3567153;81;97854;-94
2020/12/24 22:35:21;;;;;;;5.90;1.53;;;;;;;5.33;90.92;99734.69;3569156;81;32203;-93
2020/12/24 22:40:25;;;;;;;7.67;2.33;;;;;;;5.35;90.96;99729.08;3561129;81;98227;-94
2020/12/24 22:45:26;;;;;;;6.93;1.93;;;;;;;5.31;90.69;99739.16;3569075;81;32419;-94
2020/12/24 22:50:27;;;;;;;6.43;2.20;;;;;;;5.22;90.79;99745.95;3560704;81;98160;-93
2020/12/24 22:55:28;;;;;;;7.20;1.90;;;;;;;5.20;90.93;99746.89;3562989;81;31736;-92
2020/12/24 23:00:30;;;;;;;4.07;1.70;;;;;;;5.15;90.90;99754.79;3551583;81;98117;-94
2020/12/24 23:05:32;;;;;;;5.13;2.17;;;;;;;5.14;91.06;99762.73;3569843;81;31797;-94
2020/12/24 23:10:33;;;;;;;6.20;2.10;;;;;;;5.20;91.12;99766.78;3555970;81;98308;-94
2020/12/24 23:15:34;;;;;;;5.03;1.60;;;;;;;5.22;91.00;99761.75;3568785;81;32378;-93
2020/12/24 23:20:35;;;;;;;6.83;1.57;;;;;;;5.22;91.13;99772.66;3560047;81;97913;-94
2020/12/24 23:25:36;;;;;;;4.50;1.63;;;;;;;5.27;90.98;99779.77;3560403;81;32093;-93
2020/12/24 23:30:38;;;;;;;6.00;2.57;;;;;;;5.27;91.04;99793.41;3562558;81;97879;-93
2020/12/24 23:35:41;;;;;;;6.97;2.07;;;;;;;5.36;91.24;99804.33;3540457;82;31803;-94
2020/12/24 23:40:42;;;;;;;5.03;1.80;;;;;;;5.39;90.96;99802.26;3531792;82;98148;-93
2020/12/24 23:45:45;;;;;;;5.27;1.87;;;;;;;5.38;91.07;99799.32;3530562;83;31707;-93
2020/12/24 23:50:46;;;;;;;5.53;2.17;;;;;;;5.30;90.83;99806.34;3524320;82;98108;-93